sensor_id;sensor_type;location;lat;lon;timestamp;pressure;altitude;pressure_sealevel;temperature;humidity
76998;BME280;65930;48.874;10.734;2024-01-10T00:02:19;96759.13;;;-5.62;64.32
76998;BME280;65930;48.874;10.734;2024-01-10T00:04:47;96747.09;;;-5.41;64.06
76998;BME280;65930;48.874;10.734;2024-01-10T00:07:17;96752.13;;;-5.63;63.64
76998;BME280;65930;48.874;10.734;2024-01-10T00:09:45;96741.91;;;-5.32;63.81
76998;BME280;65930;48.874;10.734;2024-01-10T00:12:13;96751.50;;;-5.55;64.32
76998;BME280;65930;48.874;10.734;2024-01-10T00:14:41;96750.81;;;-5.65;63.77
76998;BME280;65930;48.874;10.734;2024-01-10T00:17:09;96753.22;;;-5.30;63.96
76998;BME280;65930;48.874;10.734;2024-01-10T00:19:38;96755.53;;;-5.13;63.42
76998;BME280;65930;48.874;10.734;2024-01-10T00:22:06;96752.72;;;-5.32;64.12
76998;BME280;65930;48.874;10.734;2024-01-10T00:24:36;96747.78;;;-5.59;64.95
76998;BME280;65930;48.874;10.734;2024-01-10T00:27:04;96742.69;;;-5.32;64.53
76998;BME280;65930;48.874;10.734;2024-01-10T00:29:33;96735.13;;;-5.29;64.77
76998;BME280;65930;48.874;10.734;2024-01-10T00:32:01;96739.94;;;-5.26;63.25
76998;BME280;65930;48.874;10.734;2024-01-10T00:34:29;96743.03;;;-5.38;64.37
76998;BME280;65930;48.874;10.734;2024-01-10T00:36:57;96748.66;;;-5.35;64.43
76998;BME280;65930;48.874;10.734;2024-01-10T00:39:25;96733.94;;;-5.47;64.80
76998;BME280;65930;48.874;10.734;2024-01-10T00:41:54;96737.28;;;-5.32;64.39
76998;BME280;65930;48.874;10.734;2024-01-10T00:44:22;96724.78;;;-5.22;64.09
76998;BME280;65930;48.874;10.734;2024-01-10T00:46:50;96729.00;;;-5.40;64.62
76998;BME280;65930;48.874;10.734;2024-01-10T00:49:18;96734.16;;;-5.44;65.17
76998;BME280;65930;48.874;10.734;2024-01-10T00:51:47;96732.47;;;-5.35;65.08
76998;BME280;65930;48.874;10.734;2024-01-10T00:54:15;96722.72;;;-5.30;65.03
76998;BME280;65930;48.874;10.734;2024-01-10T00:56:43;96727.50;;;-5.22;64.49
76998;BME280;65930;48.874;10.734;2024-01-10T00:59:13;96735.34;;;-5.60;66.00
76998;BME280;65930;48.874;10.734;2024-01-10T01:01:41;96735.13;;;-5.29;65.28
76998;BME280;65930;48.874;10.734;2024-01-10T01:04:09;96729.81;;;-5.40;65.92
76998;BME280;65930;48.874;10.734;2024-01-10T01:06:37;96731.22;;;-5.47;65.96
76998;BME280;65930;48.874;10.734;2024-01-10T01:09:05;96731.44;;;-5.39;66.34
76998;BME280;65930;48.874;10.734;2024-01-10T01:11:33;96745.28;;;-5.50;65.39
76998;BME280;65930;48.874;10.734;2024-01-10T01:14:01;96745.03;;;-5.54;66.37
76998;BME280;65930;48.874;10.734;2024-01-10T01:16:31;96743.34;;;-5.45;66.73
76998;BME280;65930;48.874;10.734;2024-01-10T01:18:59;96738.38;;;-5.27;65.70
76998;BME280;65930;48.874;10.734;2024-01-10T01:21:27;96742.81;;;-5.42;66.09
76998;BME280;65930;48.874;10.734;2024-01-10T01:23:55;96741.00;;;-5.90;67.36
76998;BME280;65930;48.874;10.734;2024-01-10T01:26:23;96749.38;;;-5.58;66.38
76998;BME280;65930;48.874;10.734;2024-01-10T01:28:51;96747.69;;;-5.49;66.57
76998;BME280;65930;48.874;10.734;2024-01-10T01:31:19;96753.19;;;-4.96;65.09
76998;BME280;65930;48.874;10.734;2024-01-10T01:33:48;96747.47;;;-5.52;66.07
76998;BME280;65930;48.874;10.734;2024-01-10T01:36:17;96752.81;;;-5.86;67.40
76998;BME280;65930;48.874;10.734;2024-01-10T01:38:45;96759.00;;;-5.42;66.47
76998;BME280;65930;48.874;10.734;2024-01-10T01:41:13;96756.00;;;-5.74;67.43
76998;BME280;65930;48.874;10.734;2024-01-10T01:43:43;96757.28;;;-5.66;67.32
76998;BME280;65930;48.874;10.734;2024-01-10T01:46:11;96756.81;;;-5.40;66.54
76998;BME280;65930;48.874;10.734;2024-01-10T01:48:39;96752.63;;;-5.56;67.61
76998;BME280;65930;48.874;10.734;2024-01-10T01:51:12;96742.50;;;-5.06;65.43
76998;BME280;65930;48.874;10.734;2024-01-10T01:53:44;96750.34;;;-5.10;65.44
76998;BME280;65930;48.874;10.734;2024-01-10T01:56:13;96751.00;;;-5.57;66.09
76998;BME280;65930;48.874;10.734;2024-01-10T01:58:43;96748.91;;;-5.65;67.24
76998;BME280;65930;48.874;10.734;2024-01-10T02:01:13;96745.81;;;-5.14;66.08
76998;BME280;65930;48.874;10.734;2024-01-10T02:03:41;96763.41;;;-5.56;66.47
76998;BME280;65930;48.874;10.734;2024-01-10T02:06:11;96755.19;;;-5.41;67.03
76998;BME280;65930;48.874;10.734;2024-01-10T02:08:40;96749.81;;;-5.46;65.88
76998;BME280;65930;48.874;10.734;2024-01-10T02:11:08;96749.47;;;-5.73;67.76
76998;BME280;65930;48.874;10.734;2024-01-10T02:13:37;96762.47;;;-4.78;65.66
76998;BME280;65930;48.874;10.734;2024-01-10T02:16:05;96756.44;;;-4.99;66.11
76998;BME280;65930;48.874;10.734;2024-01-10T02:18:34;96752.38;;;-5.25;66.03
76998;BME280;65930;48.874;10.734;2024-01-10T02:21:02;96753.97;;;-4.91;65.28
76998;BME280;65930;48.874;10.734;2024-01-10T02:23:32;96748.22;;;-4.84;65.53
76998;BME280;65930;48.874;10.734;2024-01-10T02:26:01;96756.56;;;-5.09;66.11
76998;BME280;65930;48.874;10.734;2024-01-10T02:28:30;96756.31;;;-4.84;64.94
76998;BME280;65930;48.874;10.734;2024-01-10T02:30:58;96755.72;;;-5.78;68.82
76998;BME280;65930;48.874;10.734;2024-01-10T02:33:27;96760.47;;;-5.25;66.24
76998;BME280;65930;48.874;10.734;2024-01-10T02:35:55;96756.72;;;-5.29;67.09
76998;BME280;65930;48.874;10.734;2024-01-10T02:38:23;96750.47;;;-5.59;67.75
76998;BME280;65930;48.874;10.734;2024-01-10T02:40:51;96759.00;;;-5.42;67.20
76998;BME280;65930;48.874;10.734;2024-01-10T02:43:21;96753.19;;;-5.64;68.59
76998;BME280;65930;48.874;10.734;2024-01-10T02:45:49;96743.94;;;-5.53;68.40
76998;BME280;65930;48.874;10.734;2024-01-10T02:48:17;96744.69;;;-5.81;69.03
76998;BME280;65930;48.874;10.734;2024-01-10T02:50:45;96735.44;;;-5.70;69.71
76998;BME280;65930;48.874;10.734;2024-01-10T02:53:14;96744.09;;;-5.73;69.95
76998;BME280;65930;48.874;10.734;2024-01-10T02:55:43;96732.41;;;-5.63;68.96
76998;BME280;65930;48.874;10.734;2024-01-10T02:58:13;96734.59;;;-5.32;69.52
76998;BME280;65930;48.874;10.734;2024-01-10T03:00:42;96729.63;;;-5.87;70.24
76998;BME280;65930;48.874;10.734;2024-01-10T03:03:10;96718.53;;;-5.47;69.56
76998;BME280;65930;48.874;10.734;2024-01-10T03:05:39;96723.44;;;-5.54;69.81
76998;BME280;65930;48.874;10.734;2024-01-10T03:08:07;96726.84;;;-5.38;69.26
76998;BME280;65930;48.874;10.734;2024-01-10T03:10:35;96717.38;;;-5.41;69.84
76998;BME280;65930;48.874;10.734;2024-01-10T03:13:03;96725.06;;;-5.53;70.03
76998;BME280;65930;48.874;10.734;2024-01-10T03:15:31;96722.41;;;-5.58;71.23
76998;BME280;65930;48.874;10.734;2024-01-10T03:18:01;96712.41;;;-5.23;69.62
76998;BME280;65930;48.874;10.734;2024-01-10T03:20:29;96706.13;;;-5.48;69.88
76998;BME280;65930;48.874;10.734;2024-01-10T03:22:57;96703.50;;;-5.58;69.43
76998;BME280;65930;48.874;10.734;2024-01-10T03:25:25;96710.28;;;-5.32;70.09
76998;BME280;65930;48.874;10.734;2024-01-10T03:27:53;96707.00;;;-5.23;68.58
76998;BME280;65930;48.874;10.734;2024-01-10T03:30:21;96710.22;;;-5.21;69.15
76998;BME280;65930;48.874;10.734;2024-01-10T03:32:51;96703.16;;;-5.46;69.92
76998;BME280;65930;48.874;10.734;2024-01-10T03:35:20;96705.09;;;-5.52;69.93
76998;BME280;65930;48.874;10.734;2024-01-10T03:37:48;96707.41;;;-5.40;70.60
76998;BME280;65930;48.874;10.734;2024-01-10T03:40:17;96701.34;;;-5.27;69.89
76998;BME280;65930;48.874;10.734;2024-01-10T03:42:45;96709.03;;;-5.78;71.17
76998;BME280;65930;48.874;10.734;2024-01-10T03:45:13;96710.88;;;-5.68;71.33
76998;BME280;65930;48.874;10.734;2024-01-10T03:47:47;96704.13;;;-5.08;70.29
76998;BME280;65930;48.874;10.734;2024-01-10T03:50:17;96710.78;;;-5.58;71.29
76998;BME280;65930;48.874;10.734;2024-01-10T03:52:48;96711.25;;;-5.46;71.02
76998;BME280;65930;48.874;10.734;2024-01-10T03:55:16;96709.75;;;-5.28;70.93
76998;BME280;65930;48.874;10.734;2024-01-10T03:57:44;96700.91;;;-5.39;71.16
76998;BME280;65930;48.874;10.734;2024-01-10T04:00:12;96703.69;;;-5.15;70.55
76998;BME280;65930;48.874;10.734;2024-01-10T04:02:40;96705.50;;;-5.73;72.13
76998;BME280;65930;48.874;10.734;2024-01-10T04:05:09;96695.97;;;-5.03;70.98
76998;BME280;65930;48.874;10.734;2024-01-10T04:07:40;96694.28;;;-5.52;71.89
76998;BME280;65930;48.874;10.734;2024-01-10T04:10:12;96695.44;;;-5.29;71.82
76998;BME280;65930;48.874;10.734;2024-01-10T04:12:42;96693.72;;;-4.91;70.63
76998;BME280;65930;48.874;10.734;2024-01-10T04:15:11;96694.56;;;-5.24;71.26
76998;BME280;65930;48.874;10.734;2024-01-10T04:17:39;96701.72;;;-5.39;71.79
76998;BME280;65930;48.874;10.734;2024-01-10T04:20:08;96707.28;;;-4.96;70.93
76998;BME280;65930;48.874;10.734;2024-01-10T04:22:36;96695.84;;;-5.17;71.02
76998;BME280;65930;48.874;10.734;2024-01-10T04:25:07;96710.22;;;-5.21;70.92
76998;BME280;65930;48.874;10.734;2024-01-10T04:27:37;96713.94;;;-5.46;73.35
76998;BME280;65930;48.874;10.734;2024-01-10T04:30:06;96714.81;;;-5.90;74.33
76998;BME280;65930;48.874;10.734;2024-01-10T04:32:34;96718.34;;;-5.89;74.17
76998;BME280;65930;48.874;10.734;2024-01-10T04:35:03;96722.16;;;-5.61;74.16
76998;BME280;65930;48.874;10.734;2024-01-10T04:37:32;96725.63;;;-4.69;70.63
76998;BME280;65930;48.874;10.734;2024-01-10T04:40:00;96726.19;;;-5.59;73.56
76998;BME280;65930;48.874;10.734;2024-01-10T04:42:30;96721.41;;;-5.04;72.39
76998;BME280;65930;48.874;10.734;2024-01-10T04:44:59;96714.25;;;-5.53;74.11
76998;BME280;65930;48.874;10.734;2024-01-10T04:47:27;96723.81;;;-5.65;74.99
76998;BME280;65930;48.874;10.734;2024-01-10T04:49:56;96718.16;;;-5.69;75.48
76998;BME280;65930;48.874;10.734;2024-01-10T04:52:24;96723.00;;;-5.03;73.81
76998;BME280;65930;48.874;10.734;2024-01-10T04:54:51;96720.53;;;-5.28;74.05
76998;BME280;65930;48.874;10.734;2024-01-10T04:57:19;96730.47;;;-5.53;74.24
76998;BME280;65930;48.874;10.734;2024-01-10T04:59:47;96729.41;;;-5.57;74.65
76998;BME280;65930;48.874;10.734;2024-01-10T05:02:17;96721.19;;;-5.42;74.30
76998;BME280;65930;48.874;10.734;2024-01-10T05:04:46;96725.75;;;-5.08;73.90
76998;BME280;65930;48.874;10.734;2024-01-10T05:07:14;96721.09;;;-5.32;74.47
76998;BME280;65930;48.874;10.734;2024-01-10T05:09:42;96724.81;;;-5.56;75.69
76998;BME280;65930;48.874;10.734;2024-01-10T05:12:11;96729.88;;;-5.50;75.48
76998;BME280;65930;48.874;10.734;2024-01-10T05:14:39;96723.28;;;-5.67;76.66
76998;BME280;65930;48.874;10.734;2024-01-10T05:17:07;96723.03;;;-5.71;76.64
76998;BME280;65930;48.874;10.734;2024-01-10T05:19:36;96734.09;;;-5.34;75.38
76998;BME280;65930;48.874;10.734;2024-01-10T05:22:06;96732.63;;;-5.55;75.83
76998;BME280;65930;48.874;10.734;2024-01-10T05:24:34;96736.16;;;-5.59;76.44
76998;BME280;65930;48.874;10.734;2024-01-10T05:27:03;96735.34;;;-5.60;76.58
76998;BME280;65930;48.874;10.734;2024-01-10T05:29:31;96732.97;;;-5.27;75.89
76998;BME280;65930;48.874;10.734;2024-01-10T05:31:59;96733.16;;;-4.90;74.44
76998;BME280;65930;48.874;10.734;2024-01-10T05:34:27;96736.59;;;-5.42;75.47
76998;BME280;65930;48.874;10.734;2024-01-10T05:36:56;96739.63;;;-5.20;74.74
76998;BME280;65930;48.874;10.734;2024-01-10T05:39:24;96743.41;;;-5.55;76.88
76998;BME280;65930;48.874;10.734;2024-01-10T05:41:52;96742.84;;;-5.47;76.00
76998;BME280;65930;48.874;10.734;2024-01-10T05:44:20;96740.22;;;-5.57;76.83
76998;BME280;65930;48.874;10.734;2024-01-10T05:46:48;96743.56;;;-5.75;78.03
76998;BME280;65930;48.874;10.734;2024-01-10T05:49:16;96743.25;;;-5.68;77.66
76998;BME280;65930;48.874;10.734;2024-01-10T05:51:45;96737.59;;;-5.72;77.63
76998;BME280;65930;48.874;10.734;2024-01-10T05:54:14;96748.44;;;-5.77;77.63
76998;BME280;65930;48.874;10.734;2024-01-10T05:56:42;96744.13;;;-5.78;78.12
76998;BME280;65930;48.874;10.734;2024-01-10T05:59:10;96741.34;;;-5.68;78.79
76998;BME280;65930;48.874;10.734;2024-01-10T06:01:38;96738.91;;;-5.64;77.51
76998;BME280;65930;48.874;10.734;2024-01-10T06:04:06;96742.81;;;-5.86;78.97
76998;BME280;65930;48.874;10.734;2024-01-10T06:06:34;96739.19;;;-5.66;78.67
76998;BME280;65930;48.874;10.734;2024-01-10T06:09:03;96736.41;;;-5.90;79.19
76998;BME280;65930;48.874;10.734;2024-01-10T06:11:32;96733.34;;;-5.83;79.62
76998;BME280;65930;48.874;10.734;2024-01-10T06:14:00;96730.97;;;-5.85;79.35
76998;BME280;65930;48.874;10.734;2024-01-10T06:16:28;96737.13;;;-5.79;78.63
76998;BME280;65930;48.874;10.734;2024-01-10T06:18:56;96743.00;;;-5.72;79.00
76998;BME280;65930;48.874;10.734;2024-01-10T06:21:25;96739.00;;;-5.41;79.02
76998;BME280;65930;48.874;10.734;2024-01-10T06:23:53;96753.16;;;-5.59;79.11
76998;BME280;65930;48.874;10.734;2024-01-10T06:26:20;96731.88;;;-5.99;80.55
76998;BME280;65930;48.874;10.734;2024-01-10T06:28:51;96742.53;;;-5.45;77.97
76998;BME280;65930;48.874;10.734;2024-01-10T06:31:19;96737.84;;;-5.01;77.84
76998;BME280;65930;48.874;10.734;2024-01-10T06:33:47;96738.66;;;-5.68;79.31
76998;BME280;65930;48.874;10.734;2024-01-10T06:36:15;96749.25;;;-5.38;78.60
76998;BME280;65930;48.874;10.734;2024-01-10T06:38:43;96745.22;;;-5.11;78.09
76998;BME280;65930;48.874;10.734;2024-01-10T06:41:11;96751.53;;;-5.60;79.04
76998;BME280;65930;48.874;10.734;2024-01-10T06:43:46;96747.81;;;-5.64;78.78
76998;BME280;65930;48.874;10.734;2024-01-10T06:46:16;96734.16;;;-5.10;77.39
76998;BME280;65930;48.874;10.734;2024-01-10T06:48:43;96742.53;;;-5.45;78.10
76998;BME280;65930;48.874;10.734;2024-01-10T06:51:13;96748.59;;;-5.24;79.15
76998;BME280;65930;48.874;10.734;2024-01-10T06:53:41;96750.69;;;-5.16;78.80
76998;BME280;65930;48.874;10.734;2024-01-10T06:56:09;96768.69;;;-5.41;79.16
76998;BME280;65930;48.874;10.734;2024-01-10T06:58:38;96766.75;;;-5.35;80.39
76998;BME280;65930;48.874;10.734;2024-01-10T07:01:11;96762.28;;;-5.16;79.27
76998;BME280;65930;48.874;10.734;2024-01-10T07:03:42;96770.13;;;-5.53;80.46
76998;BME280;65930;48.874;10.734;2024-01-10T07:06:12;96767.38;;;-5.43;79.90
76998;BME280;65930;48.874;10.734;2024-01-10T07:08:42;96776.88;;;-5.51;80.25
76998;BME280;65930;48.874;10.734;2024-01-10T07:11:11;96769.41;;;-5.69;80.54
76998;BME280;65930;48.874;10.734;2024-01-10T07:13:40;96771.81;;;-5.23;78.96
76998;BME280;65930;48.874;10.734;2024-01-10T07:16:08;96778.06;;;-5.67;81.10
76998;BME280;65930;48.874;10.734;2024-01-10T07:18:36;96778.22;;;-5.53;81.72
76998;BME280;65930;48.874;10.734;2024-01-10T07:21:08;96773.06;;;-5.50;80.96
76998;BME280;65930;48.874;10.734;2024-01-10T07:23:37;96779.66;;;-5.61;81.85
76998;BME280;65930;48.874;10.734;2024-01-10T07:26:07;96787.13;;;-5.48;80.54
76998;BME280;65930;48.874;10.734;2024-01-10T07:28:35;96788.47;;;-5.50;80.07
76998;BME280;65930;48.874;10.734;2024-01-10T07:31:05;96784.38;;;-5.43;82.23
76998;BME280;65930;48.874;10.734;2024-01-10T07:33:33;96792.09;;;-5.31;79.78
76998;BME280;65930;48.874;10.734;2024-01-10T07:36:01;96797.34;;;-5.45;80.11
76998;BME280;65930;48.874;10.734;2024-01-10T07:38:31;96810.19;;;-5.65;81.24
76998;BME280;65930;48.874;10.734;2024-01-10T07:40:59;96803.44;;;-5.68;81.46
76998;BME280;65930;48.874;10.734;2024-01-10T07:43:27;96798.22;;;-5.54;80.42
76998;BME280;65930;48.874;10.734;2024-01-10T07:45:55;96791.00;;;-5.69;81.19
76998;BME280;65930;48.874;10.734;2024-01-10T07:48:23;96805.09;;;-5.77;81.10
76998;BME280;65930;48.874;10.734;2024-01-10T07:50:51;96813.03;;;-5.13;80.12
76998;BME280;65930;48.874;10.734;2024-01-10T07:53:19;96812.84;;;-5.21;79.98
76998;BME280;65930;48.874;10.734;2024-01-10T07:55:49;96809.16;;;-5.36;80.10
76998;BME280;65930;48.874;10.734;2024-01-10T07:58:18;96807.47;;;-5.65;80.79
76998;BME280;65930;48.874;10.734;2024-01-10T08:00:46;96811.22;;;-5.61;81.72
76998;BME280;65930;48.874;10.734;2024-01-10T08:03:14;96815.75;;;-5.52;79.91
76998;BME280;65930;48.874;10.734;2024-01-10T08:05:42;96817.72;;;-5.67;81.15
76998;BME280;65930;48.874;10.734;2024-01-10T08:08:10;96808.88;;;-5.34;79.61
76998;BME280;65930;48.874;10.734;2024-01-10T08:10:40;96804.06;;;-5.86;81.43
76998;BME280;65930;48.874;10.734;2024-01-10T08:13:09;96821.28;;;-4.99;78.97
76998;BME280;65930;48.874;10.734;2024-01-10T08:15:37;96811.19;;;-5.17;79.87
76998;BME280;65930;48.874;10.734;2024-01-10T08:18:05;96815.34;;;-5.30;80.05
76998;BME280;65930;48.874;10.734;2024-01-10T08:20:34;96810.31;;;-4.79;78.99
76998;BME280;65930;48.874;10.734;2024-01-10T08:23:02;96814.81;;;-4.98;78.85
76998;BME280;65930;48.874;10.734;2024-01-10T08:25:30;96821.50;;;-5.24;79.19
76998;BME280;65930;48.874;10.734;2024-01-10T08:27:59;96821.25;;;-4.94;79.32
76998;BME280;65930;48.874;10.734;2024-01-10T08:30:29;96816.09;;;-4.62;77.73
76998;BME280;65930;48.874;10.734;2024-01-10T08:32:59;96820.03;;;-4.78;77.25
76998;BME280;65930;48.874;10.734;2024-01-10T08:35:27;96832.91;;;-4.99;78.77
76998;BME280;65930;48.874;10.734;2024-01-10T08:37:55;96823.56;;;-4.49;76.72
76998;BME280;65930;48.874;10.734;2024-01-10T08:40:23;96832.59;;;-4.92;78.26
76998;BME280;65930;48.874;10.734;2024-01-10T08:42:52;96846.53;;;-4.80;77.62
76998;BME280;65930;48.874;10.734;2024-01-10T08:45:20;96852.13;;;-5.00;78.00
76998;BME280;65930;48.874;10.734;2024-01-10T08:47:50;96844.78;;;-4.37;76.50
76998;BME280;65930;48.874;10.734;2024-01-10T08:50:18;96852.56;;;-4.30;76.24
76998;BME280;65930;48.874;10.734;2024-01-10T08:52:46;96859.75;;;-4.45;76.56
76998;BME280;65930;48.874;10.734;2024-01-10T08:55:14;96849.91;;;-4.93;78.11
76998;BME280;65930;48.874;10.734;2024-01-10T08:57:42;96851.53;;;-4.63;77.20
76998;BME280;65930;48.874;10.734;2024-01-10T09:00:11;96848.38;;;-4.18;75.91
76998;BME280;65930;48.874;10.734;2024-01-10T09:02:42;96859.50;;;-5.11;77.98
76998;BME280;65930;48.874;10.734;2024-01-10T09:05:11;96855.72;;;-4.76;77.29
76998;BME280;65930;48.874;10.734;2024-01-10T09:07:39;96862.91;;;-4.66;77.42
76998;BME280;65930;48.874;10.734;2024-01-10T09:10:09;96861.72;;;-4.84;78.27
76998;BME280;65930;48.874;10.734;2024-01-10T09:12:38;96859.78;;;-4.78;78.32
76998;BME280;65930;48.874;10.734;2024-01-10T09:15:10;96858.50;;;-4.86;78.39
76998;BME280;65930;48.874;10.734;2024-01-10T09:17:41;96854.63;;;-5.09;78.83
76998;BME280;65930;48.874;10.734;2024-01-10T09:20:12;96866.72;;;-5.01;79.53
76998;BME280;65930;48.874;10.734;2024-01-10T09:22:40;96862.22;;;-4.77;77.77
76998;BME280;65930;48.874;10.734;2024-01-10T09:25:08;96860.88;;;-4.51;77.27
76998;BME280;65930;48.874;10.734;2024-01-10T09:27:39;96860.94;;;-4.56;78.28
76998;BME280;65930;48.874;10.734;2024-01-10T09:30:08;96878.00;;;-4.60;78.76
76998;BME280;65930;48.874;10.734;2024-01-10T09:32:37;96875.47;;;-4.80;78.53
76998;BME280;65930;48.874;10.734;2024-01-10T09:35:05;96867.53;;;-4.67;78.20
76998;BME280;65930;48.874;10.734;2024-01-10T09:37:35;96864.00;;;-4.38;76.72
76998;BME280;65930;48.874;10.734;2024-01-10T09:40:04;96860.25;;;-4.43;77.86
76998;BME280;65930;48.874;10.734;2024-01-10T09:42:33;96872.97;;;-4.72;78.25
76998;BME280;65930;48.874;10.734;2024-01-10T09:45:04;96870.75;;;-4.65;78.10
76998;BME280;65930;48.874;10.734;2024-01-10T09:47:36;96871.88;;;-4.71;77.85
76998;BME280;65930;48.874;10.734;2024-01-10T09:50:07;96870.94;;;-3.80;75.98
76998;BME280;65930;48.874;10.734;2024-01-10T09:52:46;96872.25;;;-4.01;76.14
76998;BME280;65930;48.874;10.734;2024-01-10T09:55:21;96863.81;;;-3.71;75.21
76998;BME280;65930;48.874;10.734;2024-01-10T09:57:51;96869.75;;;-3.92;75.47
76998;BME280;65930;48.874;10.734;2024-01-10T10:00:20;96865.16;;;-3.73;74.27
76998;BME280;65930;48.874;10.734;2024-01-10T10:02:53;96874.84;;;-3.91;75.71
76998;BME280;65930;48.874;10.734;2024-01-10T10:05:22;96867.09;;;-3.74;75.99
76998;BME280;65930;48.874;10.734;2024-01-10T10:07:51;96866.25;;;-3.93;76.08
76998;BME280;65930;48.874;10.734;2024-01-10T10:10:20;96876.25;;;-3.70;75.68
76998;BME280;65930;48.874;10.734;2024-01-10T10:12:50;96873.78;;;-3.47;74.48
76998;BME280;65930;48.874;10.734;2024-01-10T10:15:20;96868.53;;;-3.20;73.78
76998;BME280;65930;48.874;10.734;2024-01-10T10:17:50;96870.56;;;-3.49;73.79
76998;BME280;65930;48.874;10.734;2024-01-10T10:20:22;96864.88;;;-2.92;72.75
76998;BME280;65930;48.874;10.734;2024-01-10T10:23:00;96875.94;;;-3.07;72.87
76998;BME280;65930;48.874;10.734;2024-01-10T10:25:30;96870.44;;;-3.02;72.07
76998;BME280;65930;48.874;10.734;2024-01-10T10:28:00;96866.63;;;-3.38;73.35
76998;BME280;65930;48.874;10.734;2024-01-10T10:30:29;96864.44;;;-3.36;74.09
76998;BME280;65930;48.874;10.734;2024-01-10T10:32:58;96875.28;;;-3.18;73.93
76998;BME280;65930;48.874;10.734;2024-01-10T10:35:26;96873.97;;;-3.20;72.72
76998;BME280;65930;48.874;10.734;2024-01-10T10:38:07;96871.69;;;-3.50;74.70
76998;BME280;65930;48.874;10.734;2024-01-10T10:40:37;96874.75;;;-3.38;75.03
76998;BME280;65930;48.874;10.734;2024-01-10T10:43:12;96872.09;;;-3.43;75.10
76998;BME280;65930;48.874;10.734;2024-01-10T10:45:47;96864.59;;;-2.90;73.62
76998;BME280;65930;48.874;10.734;2024-01-10T10:48:18;96871.84;;;-2.86;72.29
76998;BME280;65930;48.874;10.734;2024-01-10T10:50:53;96875.03;;;-2.84;73.10
76998;BME280;65930;48.874;10.734;2024-01-10T10:53:25;96872.00;;;-3.15;74.12
76998;BME280;65930;48.874;10.734;2024-01-10T10:55:57;96865.75;;;-3.15;73.78
76998;BME280;65930;48.874;10.734;2024-01-10T10:58:27;96873.59;;;-3.14;74.25
76998;BME280;65930;48.874;10.734;2024-01-10T11:00:57;96871.47;;;-2.33;72.13
76998;BME280;65930;48.874;10.734;2024-01-10T11:03:27;96864.50;;;-2.20;70.41
76998;BME280;65930;48.874;10.734;2024-01-10T11:05:58;96859.22;;;-2.44;71.46
76998;BME280;65930;48.874;10.734;2024-01-10T11:08:35;96865.13;;;-2.42;73.03
76998;BME280;65930;48.874;10.734;2024-01-10T11:11:14;96857.47;;;-2.86;73.35
76998;BME280;65930;48.874;10.734;2024-01-10T11:14:03;96864.78;;;-2.87;74.09
76998;BME280;65930;48.874;10.734;2024-01-10T11:16:54;96858.66;;;-3.11;74.88
76998;BME280;65930;48.874;10.734;2024-01-10T11:25:27;96863.25;;;-2.28;72.39
76998;BME280;65930;48.874;10.734;2024-01-10T11:27:56;96855.84;;;-2.09;71.91
76998;BME280;65930;48.874;10.734;2024-01-10T11:30:33;96856.28;;;-2.02;70.95
76998;BME280;65930;48.874;10.734;2024-01-10T11:33:07;96856.41;;;-2.39;71.69
76998;BME280;65930;48.874;10.734;2024-01-10T11:36:10;96857.56;;;-2.13;71.64
76998;BME280;65930;48.874;10.734;2024-01-10T11:38:41;96857.66;;;-1.91;71.09
76998;BME280;65930;48.874;10.734;2024-01-10T11:41:20;96861.09;;;-2.58;73.25
76998;BME280;65930;48.874;10.734;2024-01-10T11:44:26;96849.41;;;-1.99;71.48
76998;BME280;65930;48.874;10.734;2024-01-10T11:46:56;96844.97;;;-2.36;72.39
76998;BME280;65930;48.874;10.734;2024-01-10T11:49:25;96853.53;;;-2.61;74.10
76998;BME280;65930;48.874;10.734;2024-01-10T11:51:56;96848.63;;;-2.59;73.19
76998;BME280;65930;48.874;10.734;2024-01-10T11:54:37;96846.38;;;-2.39;74.12
76998;BME280;65930;48.874;10.734;2024-01-10T11:57:19;96850.94;;;-2.07;71.80
76998;BME280;65930;48.874;10.734;2024-01-10T11:59:51;96848.63;;;-1.45;69.69
76998;BME280;65930;48.874;10.734;2024-01-10T12:02:20;96855.34;;;-2.11;71.24
76998;BME280;65930;48.874;10.734;2024-01-10T12:04:49;96846.72;;;-1.99;71.04
76998;BME280;65930;48.874;10.734;2024-01-10T12:07:19;96848.03;;;-1.69;69.71
76998;BME280;65930;48.874;10.734;2024-01-10T12:09:48;96849.00;;;-1.38;69.29
76998;BME280;65930;48.874;10.734;2024-01-10T12:12:18;96855.66;;;-1.99;71.59
76998;BME280;65930;48.874;10.734;2024-01-10T12:14:46;96861.72;;;-1.88;71.04
76998;BME280;65930;48.874;10.734;2024-01-10T12:17:14;96851.84;;;-2.11;72.17
76998;BME280;65930;48.874;10.734;2024-01-10T12:19:43;96855.03;;;-2.23;72.57
76998;BME280;65930;48.874;10.734;2024-01-10T12:22:13;96859.09;;;-1.80;71.85
76998;BME280;65930;48.874;10.734;2024-01-10T12:24:47;96846.81;;;-1.63;71.55
76998;BME280;65930;48.874;10.734;2024-01-10T12:27:21;96846.53;;;-1.26;69.37
76998;BME280;65930;48.874;10.734;2024-01-10T12:29:50;96851.75;;;-1.16;69.19
76998;BME280;65930;48.874;10.734;2024-01-10T12:32:21;96847.09;;;-1.02;68.12
76998;BME280;65930;48.874;10.734;2024-01-10T12:34:54;96843.78;;;-1.48;69.50
76998;BME280;65930;48.874;10.734;2024-01-10T12:37:25;96839.69;;;-1.59;69.90
76998;BME280;65930;48.874;10.734;2024-01-10T12:39:54;96838.34;;;-1.62;70.49
76998;BME280;65930;48.874;10.734;2024-01-10T12:42:24;96834.34;;;-1.92;71.24
76998;BME280;65930;48.874;10.734;2024-01-10T12:44:53;96834.94;;;-1.95;72.63
76998;BME280;65930;48.874;10.734;2024-01-10T12:47:22;96839.66;;;-1.87;72.27
76998;BME280;65930;48.874;10.734;2024-01-10T12:49:51;96841.59;;;-2.01;72.70
76998;BME280;65930;48.874;10.734;2024-01-10T12:52:21;96829.31;;;-1.85;72.10
76998;BME280;65930;48.874;10.734;2024-01-10T12:54:52;96837.06;;;-1.64;71.83
76998;BME280;65930;48.874;10.734;2024-01-10T12:57:20;96833.66;;;-1.84;72.59
76998;BME280;65930;48.874;10.734;2024-01-10T12:59:50;96836.38;;;-1.84;73.15
76998;BME280;65930;48.874;10.734;2024-01-10T13:02:18;96835.84;;;-1.45;72.13
76998;BME280;65930;48.874;10.734;2024-01-10T13:04:46;96833.94;;;-1.71;71.46
76998;BME280;65930;48.874;10.734;2024-01-10T13:07:14;96833.56;;;-1.79;71.85
76998;BME280;65930;48.874;10.734;2024-01-10T13:09:43;96821.38;;;-1.18;70.50